sensor_id;sensor_type;location;lat;lon;timestamp;pressure;altitude;pressure_sealevel;temperature;humidity
69737;BME280;64476;55.004;73.342;2023-08-07T00:01:59;99896.59;;;14.27;56.01
69737;BME280;64476;55.004;73.342;2023-08-07T00:05:01;99892.53;;;14.24;56.02
69737;BME280;64476;55.004;73.342;2023-08-07T00:08:05;99894.16;;;14.25;56.30
69737;BME280;64476;55.004;73.342;2023-08-07T00:11:10;99878.91;;;14.21;56.33
69737;BME280;64476;55.004;73.342;2023-08-07T00:14:12;99855.09;;;14.07;56.18
69737;BME280;64476;55.004;73.342;2023-08-07T00:20:47;99881.34;;;14.22;56.40
69737;BME280;64476;55.004;73.342;2023-08-07T00:23:53;99888.25;;;14.17;56.69
69737;BME280;64476;55.004;73.342;2023-08-07T00:26:59;99886.00;;;14.14;56.32
69737;BME280;64476;55.004;73.342;2023-08-07T00:30:01;99905.31;;;14.21;56.52
69737;BME280;64476;55.004;73.342;2023-08-07T00:33:03;99903.31;;;14.23;56.36
69737;BME280;64476;55.004;73.342;2023-08-07T00:36:05;99909.00;;;14.26;56.38
69737;BME280;64476;55.004;73.342;2023-08-07T00:39:07;99900.44;;;14.24;56.56
69737;BME280;64476;55.004;73.342;2023-08-07T00:42:14;99888.25;;;14.23;56.40
69737;BME280;64476;55.004;73.342;2023-08-07T00:45:16;99880.72;;;14.14;56.30
69737;BME280;64476;55.004;73.342;2023-08-07T00:48:19;99908.59;;;14.29;56.49
69737;BME280;64476;55.004;73.342;2023-08-07T00:51:21;99901.50;;;14.30;56.76
69737;BME280;64476;55.004;73.342;2023-08-07T00:54:25;99827.44;;;13.90;56.51
69737;BME280;64476;55.004;73.342;2023-08-07T00:57:27;99878.91;;;14.21;56.38
69737;BME280;64476;55.004;73.342;2023-08-07T01:00:29;99889.69;;;14.32;56.26
69737;BME280;64476;55.004;73.342;2023-08-07T01:04:15;99920.63;;;14.58;56.14
69737;BME280;64476;55.004;73.342;2023-08-07T01:07:18;99904.56;;;14.53;55.85
69737;BME280;64476;55.004;73.342;2023-08-07T01:10:35;99899.69;;;14.57;55.53
69737;BME280;64476;55.004;73.342;2023-08-07T01:17:25;99889.94;;;14.64;55.48
69737;BME280;64476;55.004;73.342;2023-08-07T01:20:59;99923.72;;;14.89;55.22
69737;BME280;64476;55.004;73.342;2023-08-07T01:24:02;99920.09;;;14.96;55.03
69737;BME280;64476;55.004;73.342;2023-08-07T01:30:36;99892.38;;;14.92;54.55
69737;BME280;64476;55.004;73.342;2023-08-07T01:33:49;99891.97;;;15.02;54.32
69737;BME280;64476;55.004;73.342;2023-08-07T01:37:35;99899.09;;;15.15;54.29
69737;BME280;64476;55.004;73.342;2023-08-07T01:44:15;99916.94;;;15.46;53.51
69737;BME280;64476;55.004;73.342;2023-08-07T01:47:18;99903.50;;;15.47;53.48
69737;BME280;64476;55.004;73.342;2023-08-07T01:50:21;99918.56;;;15.67;52.74
69737;BME280;64476;55.004;73.342;2023-08-07T01:53:23;99900.59;;;15.69;52.48
69737;BME280;64476;55.004;73.342;2023-08-07T01:56:25;99912.78;;;15.83;52.29
69737;BME280;64476;55.004;73.342;2023-08-07T01:59:27;99909.28;;;15.96;52.09
69737;BME280;64476;55.004;73.342;2023-08-07T02:02:28;99902.06;;;16.10;51.91
69737;BME280;64476;55.004;73.342;2023-08-07T02:05:31;99883.31;;;16.11;51.70
69737;BME280;64476;55.004;73.342;2023-08-07T02:08:43;99893.78;;;16.31;51.43
69737;BME280;64476;55.004;73.342;2023-08-07T02:11:47;99898.78;;;16.46;50.24
69737;BME280;64476;55.004;73.342;2023-08-07T02:14:48;99906.44;;;16.61;49.83
69737;BME280;64476;55.004;73.342;2023-08-07T02:17:50;99902.66;;;16.75;49.63
69737;BME280;64476;55.004;73.342;2023-08-07T02:20:52;99895.69;;;16.81;49.05
69737;BME280;64476;55.004;73.342;2023-08-07T02:23:54;99905.75;;;16.97;48.72
69737;BME280;64476;55.004;73.342;2023-08-07T02:26:55;99877.00;;;16.94;47.83
69737;BME280;64476;55.004;73.342;2023-08-07T02:30:30;99887.88;;;17.11;47.83
69737;BME280;64476;55.004;73.342;2023-08-07T02:33:33;99859.47;;;17.11;47.23
69737;BME280;64476;55.004;73.342;2023-08-07T02:36:41;99865.56;;;17.37;47.00
69737;BME280;64476;55.004;73.342;2023-08-07T02:39:43;99895.81;;;17.73;46.91
69737;BME280;64476;55.004;73.342;2023-08-07T02:42:44;99897.91;;;17.82;46.21
69737;BME280;64476;55.004;73.342;2023-08-07T02:45:46;99889.63;;;17.90;45.91
69737;BME280;64476;55.004;73.342;2023-08-07T02:48:48;99892.47;;;18.07;46.13
69737;BME280;64476;55.004;73.342;2023-08-07T02:52:22;99895.94;;;18.26;45.75
69737;BME280;64476;55.004;73.342;2023-08-07T02:55:25;99884.50;;;18.37;45.82
69737;BME280;64476;55.004;73.342;2023-08-07T02:58:27;99834.06;;;18.19;44.96
69737;BME280;64476;55.004;73.342;2023-08-07T03:01:29;99864.91;;;18.50;44.20
69737;BME280;64476;55.004;73.342;2023-08-07T03:04:30;99888.16;;;18.78;44.06
69737;BME280;64476;55.004;73.342;2023-08-07T03:07:32;99882.66;;;18.92;44.05
69737;BME280;64476;55.004;73.342;2023-08-07T03:10:34;99873.16;;;19.07;44.22
69737;BME280;64476;55.004;73.342;2023-08-07T03:13:43;99845.81;;;19.12;44.09
69737;BME280;64476;55.004;73.342;2023-08-07T03:16:47;99849.38;;;19.29;42.64
69737;BME280;64476;55.004;73.342;2023-08-07T03:19:49;99848.41;;;19.47;42.36
69737;BME280;64476;55.004;73.342;2023-08-07T03:22:51;99840.97;;;19.61;42.77
69737;BME280;64476;55.004;73.342;2023-08-07T03:29:09;99843.91;;;19.88;41.40
69737;BME280;64476;55.004;73.342;2023-08-07T03:32:17;99855.03;;;20.14;40.60
69737;BME280;64476;55.004;73.342;2023-08-07T03:35:18;99861.75;;;20.33;40.04
69737;BME280;64476;55.004;73.342;2023-08-07T03:38:20;99862.53;;;20.45;39.43
69737;BME280;64476;55.004;73.342;2023-08-07T03:41:25;99860.91;;;20.61;39.46
69737;BME280;64476;55.004;73.342;2023-08-07T03:44:28;99851.94;;;20.67;38.69
69737;BME280;64476;55.004;73.342;2023-08-07T03:50:41;99861.44;;;20.97;38.83
69737;BME280;64476;55.004;73.342;2023-08-07T03:53:43;99841.91;;;20.96;38.36
69737;BME280;64476;55.004;73.342;2023-08-07T03:56:45;99862.31;;;21.19;38.50
69737;BME280;64476;55.004;73.342;2023-08-07T03:59:48;99857.91;;;21.30;38.03
69737;BME280;64476;55.004;73.342;2023-08-07T04:03:21;99870.38;;;21.46;37.66
69737;BME280;64476;55.004;73.342;2023-08-07T04:06:23;99866.66;;;21.47;37.72
69737;BME280;64476;55.004;73.342;2023-08-07T04:09:25;99848.34;;;21.56;37.04
69737;BME280;64476;55.004;73.342;2023-08-07T04:15:34;99862.06;;;21.87;36.33
69737;BME280;64476;55.004;73.342;2023-08-07T04:18:43;99857.91;;;22.01;36.09
69737;BME280;64476;55.004;73.342;2023-08-07T04:21:45;99849.94;;;22.06;35.44
69737;BME280;64476;55.004;73.342;2023-08-07T04:24:46;99851.44;;;22.24;35.26
69737;BME280;64476;55.004;73.342;2023-08-07T04:27:48;99853.41;;;22.34;35.36
69737;BME280;64476;55.004;73.342;2023-08-07T04:30:51;99832.78;;;22.34;34.82
69737;BME280;64476;55.004;73.342;2023-08-07T04:33:52;99845.81;;;22.53;34.48
69737;BME280;64476;55.004;73.342;2023-08-07T04:36:54;99815.75;;;22.45;35.69
69737;BME280;64476;55.004;73.342;2023-08-07T04:40:01;99841.84;;;22.60;34.02
69737;BME280;64476;55.004;73.342;2023-08-07T04:43:05;99822.03;;;22.61;35.02
69737;BME280;64476;55.004;73.342;2023-08-07T04:46:06;99840.41;;;22.85;35.04
69737;BME280;64476;55.004;73.342;2023-08-07T04:49:08;99833.75;;;22.92;34.56
69737;BME280;64476;55.004;73.342;2023-08-07T04:52:10;99851.03;;;23.17;34.95
69737;BME280;64476;55.004;73.342;2023-08-07T04:55:12;99819.59;;;23.02;33.94
69737;BME280;64476;55.004;73.342;2023-08-07T04:58:15;99834.63;;;23.08;34.40
69737;BME280;64476;55.004;73.342;2023-08-07T05:01:17;99811.03;;;23.00;33.96
69737;BME280;64476;55.004;73.342;2023-08-07T05:08:00;99816.47;;;23.15;34.49
69737;BME280;64476;55.004;73.342;2023-08-07T05:11:03;99836.94;;;23.37;33.65
69737;BME280;64476;55.004;73.342;2023-08-07T05:14:05;99843.94;;;23.48;33.87
69737;BME280;64476;55.004;73.342;2023-08-07T05:17:07;99837.00;;;23.52;33.43
69737;BME280;64476;55.004;73.342;2023-08-07T05:20:09;99831.53;;;23.21;34.02
69737;BME280;64476;55.004;73.342;2023-08-07T05:26:46;99825.09;;;22.80;34.41
69737;BME280;64476;55.004;73.342;2023-08-07T05:29:47;99793.94;;;22.64;34.64
69737;BME280;64476;55.004;73.342;2023-08-07T05:32:49;99813.06;;;22.78;34.38
69737;BME280;64476;55.004;73.342;2023-08-07T05:35:51;99807.56;;;22.57;34.63
69737;BME280;64476;55.004;73.342;2023-08-07T05:39:02;99802.84;;;22.37;34.83
69737;BME280;64476;55.004;73.342;2023-08-07T05:42:43;99816.25;;;22.42;34.76
69737;BME280;64476;55.004;73.342;2023-08-07T05:45:44;99817.97;;;22.54;35.30
69737;BME280;64476;55.004;73.342;2023-08-07T05:48:47;99803.22;;;22.51;35.23
69737;BME280;64476;55.004;73.342;2023-08-07T05:51:53;99792.66;;;22.71;34.18
69737;BME280;64476;55.004;73.342;2023-08-07T05:54:55;99805.44;;;23.07;34.46
69737;BME280;64476;55.004;73.342;2023-08-07T05:57:57;99799.88;;;23.18;33.68
69737;BME280;64476;55.004;73.342;2023-08-07T06:00:59;99807.41;;;23.21;33.56
69737;BME280;64476;55.004;73.342;2023-08-07T06:04:02;99785.56;;;22.97;33.81
69737;BME280;64476;55.004;73.342;2023-08-07T06:07:05;99799.75;;;22.93;34.28
69737;BME280;64476;55.004;73.342;2023-08-07T06:10:07;99775.19;;;22.59;34.16
69737;BME280;64476;55.004;73.342;2023-08-07T06:13:09;99791.19;;;23.01;35.67
69737;BME280;64476;55.004;73.342;2023-08-07T06:16:11;99768.97;;;23.01;34.39
69737;BME280;64476;55.004;73.342;2023-08-07T06:19:12;99777.28;;;23.09;34.23
69737;BME280;64476;55.004;73.342;2023-08-07T06:22:14;99758.25;;;22.95;33.66
69737;BME280;64476;55.004;73.342;2023-08-07T06:25:16;99792.69;;;23.39;34.26
69737;BME280;64476;55.004;73.342;2023-08-07T06:28:19;99761.00;;;23.16;32.93
69737;BME280;64476;55.004;73.342;2023-08-07T06:31:20;99777.59;;;23.13;32.97
69737;BME280;64476;55.004;73.342;2023-08-07T06:34:22;99782.16;;;23.12;33.26
69737;BME280;64476;55.004;73.342;2023-08-07T06:37:24;99780.97;;;23.56;33.50
69737;BME280;64476;55.004;73.342;2023-08-07T06:40:27;99779.69;;;24.04;33.37
69737;BME280;64476;55.004;73.342;2023-08-07T06:43:29;99761.72;;;24.25;31.84
69737;BME280;64476;55.004;73.342;2023-08-07T06:46:31;99767.34;;;24.34;31.45
69737;BME280;64476;55.004;73.342;2023-08-07T06:49:33;99743.22;;;24.03;31.52
69737;BME280;64476;55.004;73.342;2023-08-07T06:52:37;99770.56;;;23.90;32.30
69737;BME280;64476;55.004;73.342;2023-08-07T06:55:41;99741.00;;;23.64;32.47
69737;BME280;64476;55.004;73.342;2023-08-07T06:58:43;99745.38;;;23.81;31.97
69737;BME280;64476;55.004;73.342;2023-08-07T07:01:45;99757.97;;;24.06;31.57
69737;BME280;64476;55.004;73.342;2023-08-07T07:04:47;99764.13;;;24.42;30.27
69737;BME280;64476;55.004;73.342;2023-08-07T07:07:49;99739.41;;;24.55;30.44
69737;BME280;64476;55.004;73.342;2023-08-07T07:10:53;99755.38;;;25.01;29.95
69737;BME280;64476;55.004;73.342;2023-08-07T07:13:56;99727.38;;;25.12;29.56
69737;BME280;64476;55.004;73.342;2023-08-07T07:17:01;99748.03;;;25.67;29.11
69737;BME280;64476;55.004;73.342;2023-08-07T07:20:03;99751.72;;;25.81;28.57
69737;BME280;64476;55.004;73.342;2023-08-07T07:23:07;99745.41;;;25.96;28.56
69737;BME280;64476;55.004;73.342;2023-08-07T07:26:08;99742.88;;;26.04;27.70
69737;BME280;64476;55.004;73.342;2023-08-07T07:29:10;99768.81;;;26.29;27.59
69737;BME280;64476;55.004;73.342;2023-08-07T07:32:12;99755.97;;;26.50;27.17
69737;BME280;64476;55.004;73.342;2023-08-07T07:35:14;99770.13;;;26.61;27.12
69737;BME280;64476;55.004;73.342;2023-08-07T07:38:16;99752.47;;;26.50;26.70
69737;BME280;64476;55.004;73.342;2023-08-07T07:41:18;99774.34;;;26.43;26.96
69737;BME280;64476;55.004;73.342;2023-08-07T07:44:51;99766.31;;;26.04;26.88
69737;BME280;64476;55.004;73.342;2023-08-07T07:47:53;99766.06;;;26.05;27.11
69737;BME280;64476;55.004;73.342;2023-08-07T07:51:02;99733.06;;;25.90;26.52
69737;BME280;64476;55.004;73.342;2023-08-07T07:54:04;99750.63;;;26.16;26.58
69737;BME280;64476;55.004;73.342;2023-08-07T07:57:06;99755.50;;;26.43;27.01
69737;BME280;64476;55.004;73.342;2023-08-07T08:00:08;99756.00;;;26.69;27.28
69737;BME280;64476;55.004;73.342;2023-08-07T08:03:16;99755.38;;;26.83;26.66
69737;BME280;64476;55.004;73.342;2023-08-07T08:06:17;99753.56;;;26.97;26.31
69737;BME280;64476;55.004;73.342;2023-08-07T08:09:19;99752.97;;;27.00;27.27
69737;BME280;64476;55.004;73.342;2023-08-07T08:12:24;99704.09;;;26.88;26.03
69737;BME280;64476;55.004;73.342;2023-08-07T08:15:26;99727.25;;;26.89;26.83
69737;BME280;64476;55.004;73.342;2023-08-07T08:18:27;99724.31;;;26.85;26.99
69737;BME280;64476;55.004;73.342;2023-08-07T08:21:31;99731.72;;;26.98;25.38
69737;BME280;64476;55.004;73.342;2023-08-07T08:24:33;99733.47;;;27.08;26.43
69737;BME280;64476;55.004;73.342;2023-08-07T08:31:12;99701.50;;;26.77;27.14
69737;BME280;64476;55.004;73.342;2023-08-07T08:34:14;99725.44;;;27.03;26.32
69737;BME280;64476;55.004;73.342;2023-08-07T08:37:15;99722.75;;;27.03;26.22
69737;BME280;64476;55.004;73.342;2023-08-07T08:40:17;99728.47;;;26.77;26.11
69737;BME280;64476;55.004;73.342;2023-08-07T08:43:23;99712.97;;;26.40;26.19
69737;BME280;64476;55.004;73.342;2023-08-07T08:46:28;99693.22;;;25.92;27.10
69737;BME280;64476;55.004;73.342;2023-08-07T08:49:43;99708.47;;;25.72;27.81
69737;BME280;64476;55.004;73.342;2023-08-07T08:52:47;99714.50;;;25.54;27.51
69737;BME280;64476;55.004;73.342;2023-08-07T08:55:50;99712.88;;;25.58;27.87
69737;BME280;64476;55.004;73.342;2023-08-07T08:58:52;99706.50;;;25.83;29.05
69737;BME280;64476;55.004;73.342;2023-08-07T09:01:54;99710.25;;;26.11;27.13
69737;BME280;64476;55.004;73.342;2023-08-07T09:04:56;99686.00;;;26.16;27.56
69737;BME280;64476;55.004;73.342;2023-08-07T09:07:58;99701.09;;;26.41;26.55
69737;BME280;64476;55.004;73.342;2023-08-07T09:11:03;99698.31;;;26.27;26.85
69737;BME280;64476;55.004;73.342;2023-08-07T09:14:05;99702.59;;;26.28;27.24
69737;BME280;64476;55.004;73.342;2023-08-07T09:17:08;99686.72;;;26.27;28.11
69737;BME280;64476;55.004;73.342;2023-08-07T09:20:10;99699.03;;;26.33;26.90
69737;BME280;64476;55.004;73.342;2023-08-07T09:23:15;99672.06;;;26.38;29.08
69737;BME280;64476;55.004;73.342;2023-08-07T09:26:23;99682.03;;;26.62;26.26
69737;BME280;64476;55.004;73.342;2023-08-07T09:33:01;99679.69;;;26.74;24.99
69737;BME280;64476;55.004;73.342;2023-08-07T09:36:05;99665.28;;;26.65;24.43
69737;BME280;64476;55.004;73.342;2023-08-07T09:39:39;99658.16;;;26.74;25.17
69737;BME280;64476;55.004;73.342;2023-08-07T09:43:20;99680.41;;;27.03;23.99
69737;BME280;64476;55.004;73.342;2023-08-07T09:46:55;99681.16;;;27.09;24.83
69737;BME280;64476;55.004;73.342;2023-08-07T09:49:56;99676.56;;;27.10;24.81
69737;BME280;64476;55.004;73.342;2023-08-07T09:52:58;99605.34;;;26.54;25.39
69737;BME280;64476;55.004;73.342;2023-08-07T09:56:00;99666.22;;;26.98;27.13
69737;BME280;64476;55.004;73.342;2023-08-07T09:59:08;99679.25;;;27.10;25.60
69737;BME280;64476;55.004;73.342;2023-08-07T10:02:10;99677.72;;;27.03;25.23
69737;BME280;64476;55.004;73.342;2023-08-07T10:05:13;99652.97;;;26.83;25.50
69737;BME280;64476;55.004;73.342;2023-08-07T10:08:15;99677.13;;;27.07;26.10
69737;BME280;64476;55.004;73.342;2023-08-07T10:11:17;99672.13;;;27.19;25.33
69737;BME280;64476;55.004;73.342;2023-08-07T10:14:20;99635.03;;;27.11;24.87
69737;BME280;64476;55.004;73.342;2023-08-07T10:17:23;99664.47;;;27.45;25.27
69737;BME280;64476;55.004;73.342;2023-08-07T10:20:27;99655.75;;;27.34;24.04
69737;BME280;64476;55.004;73.342;2023-08-07T10:23:29;99654.47;;;27.26;24.85
69737;BME280;64476;55.004;73.342;2023-08-07T10:26:43;99658.03;;;27.41;25.17
69737;BME280;64476;55.004;73.342;2023-08-07T10:29:46;99626.88;;;27.16;24.27
69737;BME280;64476;55.004;73.342;2023-08-07T10:32:50;99646.53;;;27.35;24.01
69737;BME280;64476;55.004;73.342;2023-08-07T10:35:53;99650.63;;;27.33;24.83
69737;BME280;64476;55.004;73.342;2023-08-07T10:45:45;99650.13;;;27.12;23.17
69737;BME280;64476;55.004;73.342;2023-08-07T10:49:31;99650.13;;;27.12;23.46
69737;BME280;64476;55.004;73.342;2023-08-07T10:52:38;99649.28;;;27.11;24.19
69737;BME280;64476;55.004;73.342;2023-08-07T10:55:44;99653.03;;;27.34;25.33
69737;BME280;64476;55.004;73.342;2023-08-07T10:58:50;99645.22;;;27.65;24.82
69737;BME280;64476;55.004;73.342;2023-08-07T11:01:54;99640.38;;;27.81;23.88
69737;BME280;64476;55.004;73.342;2023-08-07T11:04:56;99647.72;;;28.36;23.48
69737;BME280;64476;55.004;73.342;2023-08-07T11:08:02;99622.19;;;28.69;22.81
69737;BME280;64476;55.004;73.342;2023-08-07T11:11:05;99626.78;;;29.19;22.71
69737;BME280;64476;55.004;73.342;2023-08-07T11:14:09;99634.84;;;29.86;22.10
69737;BME280;64476;55.004;73.342;2023-08-07T11:17:12;99624.66;;;30.23;21.77
69737;BME280;64476;55.004;73.342;2023-08-07T11:20:47;99639.94;;;30.94;21.46
69737;BME280;64476;55.004;73.342;2023-08-07T11:23:49;99639.63;;;31.39;20.75
69737;BME280;64476;55.004;73.342;2023-08-07T11:27:23;99635.66;;;31.27;20.59
69737;BME280;64476;55.004;73.342;2023-08-07T11:30:27;99634.50;;;31.46;20.25
69737;BME280;64476;55.004;73.342;2023-08-07T11:33:31;99613.19;;;31.83;19.69
69737;BME280;64476;55.004;73.342;2023-08-07T11:40:10;99637.88;;;31.51;19.77
69737;BME280;64476;55.004;73.342;2023-08-07T11:43:58;99639.34;;;30.31;20.84
69737;BME280;64476;55.004;73.342;2023-08-07T11:47:02;99645.19;;;29.53;21.52
69737;BME280;64476;55.004;73.342;2023-08-07T11:50:04;99634.13;;;28.68;22.57
69737;BME280;64476;55.004;73.342;2023-08-07T11:53:06;99637.06;;;27.84;23.56
69737;BME280;64476;55.004;73.342;2023-08-07T11:56:12;99631.75;;;27.33;25.79
69737;BME280;64476;55.004;73.342;2023-08-07T11:59:21;99599.16;;;26.72;25.39
69737;BME280;64476;55.004;73.342;2023-08-07T12:06:02;99624.59;;;26.23;25.81
69737;BME280;64476;55.004;73.342;2023-08-07T12:09:05;99638.78;;;26.00;26.12
69737;BME280;64476;55.004;73.342;2023-08-07T12:12:11;99613.84;;;25.65;26.56
69737;BME280;64476;55.004;73.342;2023-08-07T12:15:12;99606.16;;;25.48;26.86
69737;BME280;64476;55.004;73.342;2023-08-07T12:18:14;99630.88;;;25.50;27.07
69737;BME280;64476;55.004;73.342;2023-08-07T12:21:23;99627.50;;;25.34;27.40
69737;BME280;64476;55.004;73.342;2023-08-07T12:24:28;99620.34;;;25.20;27.66
69737;BME280;64476;55.004;73.342;2023-08-07T12:27:29;99625.56;;;25.06;27.97
69737;BME280;64476;55.004;73.342;2023-08-07T12:30:34;99599.41;;;24.72;27.87
69737;BME280;64476;55.004;73.342;2023-08-07T12:33:43;99624.94;;;24.70;28.29
69737;BME280;64476;55.004;73.342;2023-08-07T12:36:45;99626.63;;;24.55;28.44
69737;BME280;64476;55.004;73.342;2023-08-07T12:39:48;99608.19;;;24.28;28.48
69737;BME280;64476;55.004;73.342;2023-08-07T12:42:49;99615.16;;;24.24;28.80
69737;BME280;64476;55.004;73.342;2023-08-07T12:45:52;99588.69;;;24.02;28.83
69737;BME280;64476;55.004;73.342;2023-08-07T12:48:54;99626.47;;;24.11;29.07
69737;BME280;64476;55.004;73.342;2023-08-07T12:52:11;99621.41;;;23.94;29.62
69737;BME280;64476;55.004;73.342;2023-08-07T12:55:14;99618.22;;;23.82;29.76
69737;BME280;64476;55.004;73.342;2023-08-07T12:58:16;99625.16;;;23.73;30.09
69737;BME280;64476;55.004;73.342;2023-08-07T13:01:23;99612.31;;;23.64;29.74
69737;BME280;64476;55.004;73.342;2023-08-07T13:04:56;99597.31;;;23.48;30.05
69737;BME280;64476;55.004;73.342;2023-08-07T13:07:58;99593.53;;;23.39;30.02
69737;BME280;64476;55.004;73.342;2023-08-07T13:11:01;99626.53;;;23.44;30.56
69737;BME280;64476;55.004;73.342;2023-08-07T13:14:03;99621.16;;;23.34;30.24
69737;BME280;64476;55.004;73.342;2023-08-07T13:17:06;99621.97;;;23.30;31.10
69737;BME280;64476;55.004;73.342;2023-08-07T13:20:08;99634.28;;;23.31;31.51
69737;BME280;64476;55.004;73.342;2023-08-07T13:23:11;99630.53;;;23.21;31.00
69737;BME280;64476;55.004;73.342;2023-08-07T13:26:17;99634.56;;;23.19;31.03
69737;BME280;64476;55.004;73.342;2023-08-07T13:29:19;99612.53;;;22.96;31.00
69737;BME280;64476;55.004;73.342;2023-08-07T13:32:25;99638.28;;;23.13;31.04
69737;BME280;64476;55.004;73.342;2023-08-07T13:35:27;99608.25;;;22.95;30.97
69737;BME280;64476;55.004;73.342;2023-08-07T13:38:29;99618.69;;;22.92;31.05
69737;BME280;64476;55.004;73.342;2023-08-07T13:41:31;99644.41;;;23.03;31.27
69737;BME280;64476;55.004;73.342;2023-08-07T13:44:33;99635.56;;;22.92;31.26
69737;BME280;64476;55.004;73.342;2023-08-07T13:47:36;99627.75;;;22.81;30.76
69737;BME280;64476;55.004;73.342;2023-08-07T13:50:38;99631.47;;;22.80;30.85
69737;BME280;64476;55.004;73.342;2023-08-07T13:53:43;99641.38;;;22.79;30.91
69737;BME280;64476;55.004;73.342;2023-08-07T13:56:49;99614.53;;;22.48;31.02
69737;BME280;64476;55.004;73.342;2023-08-07T13:59:52;99645.84;;;22.58;31.27
69737;BME280;64476;55.004;73.342;2023-08-07T14:02:55;99656.28;;;22.55;31.21
69737;BME280;64476;55.004;73.342;2023-08-07T14:05:57;99655.47;;;22.49;31.60
69737;BME280;64476;55.004;73.342;2023-08-07T14:09:30;99657.53;;;22.42;31.85
69737;BME280;64476;55.004;73.342;2023-08-07T14:12:32;99652.91;;;22.27;31.83
69737;BME280;64476;55.004;73.342;2023-08-07T14:15:34;99649.97;;;22.23;31.75
69737;BME280;64476;55.004;73.342;2023-08-07T14:18:43;99637.31;;;22.14;32.05
69737;BME280;64476;55.004;73.342;2023-08-07T14:21:45;99668.19;;;22.26;32.05
69737;BME280;64476;55.004;73.342;2023-08-07T14:24:47;99655.53;;;22.17;32.16
69737;BME280;64476;55.004;73.342;2023-08-07T14:27:49;99672.09;;;22.14;32.39
69737;BME280;64476;55.004;73.342;2023-08-07T14:30:51;99620.81;;;21.80;32.63
69737;BME280;64476;55.004;73.342;2023-08-07T14:33:52;99668.22;;;21.94;32.70
69737;BME280;64476;55.004;73.342;2023-08-07T14:36:54;99663.06;;;21.83;32.94
69737;BME280;64476;55.004;73.342;2023-08-07T14:39:56;99653.34;;;21.76;33.15
69737;BME280;64476;55.004;73.342;2023-08-07T14:43:00;99666.19;;;21.74;33.37
69737;BME280;64476;55.004;73.342;2023-08-07T14:46:03;99679.28;;;21.76;33.63
69737;BME280;64476;55.004;73.342;2023-08-07T14:49:08;99644.84;;;21.47;33.82
69737;BME280;64476;55.004;73.342;2023-08-07T14:55:46;99683.13;;;21.53;34.09
69737;BME280;64476;55.004;73.342;2023-08-07T14:58:48;99670.13;;;21.35;34.24
69737;BME280;64476;55.004;73.342;2023-08-07T15:01:49;99692.91;;;21.42;34.43
69737;BME280;64476;55.004;73.342;2023-08-07T15:04:51;99621.03;;;20.92;34.85
69737;BME280;64476;55.004;73.342;2023-08-07T15:07:53;99677.38;;;21.12;34.92
69737;BME280;64476;55.004;73.342;2023-08-07T15:10:58;99710.09;;;21.24;35.17
69737;BME280;64476;55.004;73.342;2023-08-07T15:14:01;99674.50;;;20.97;35.35
69737;BME280;64476;55.004;73.342;2023-08-07T15:17:05;99686.81;;;20.98;35.51
69737;BME280;64476;55.004;73.342;2023-08-07T15:20:08;99698.91;;;21.05;35.80
69737;BME280;64476;55.004;73.342;2023-08-07T15:23:14;99696.06;;;20.90;35.92
69737;BME280;64476;55.004;73.342;2023-08-07T15:29:54;99708.53;;;20.85;36.26
69737;BME280;64476;55.004;73.342;2023-08-07T15:32:56;99709.28;;;20.80;36.54
69737;BME280;64476;55.004;73.342;2023-08-07T15:35:57;99718.78;;;20.71;36.79
69737;BME280;64476;55.004;73.342;2023-08-07T15:38:59;99719.50;;;20.66;37.10
69737;BME280;64476;55.004;73.342;2023-08-07T15:42:01;99719.41;;;20.56;37.43
69737;BME280;64476;55.004;73.342;2023-08-07T15:45:03;99727.63;;;20.54;37.66
69737;BME280;64476;55.004;73.342;2023-08-07T15:48:06;99727.00;;;20.47;37.48
69737;BME280;64476;55.004;73.342;2023-08-07T15:51:08;99725.31;;;20.41;37.90
69737;BME280;64476;55.004;73.342;2023-08-07T15:54:10;99723.03;;;20.33;37.79
69737;BME280;64476;55.004;73.342;2023-08-07T15:57:12;99735.56;;;20.32;38.43
69737;BME280;64476;55.004;73.342;2023-08-07T16:00:15;99708.81;;;20.10;38.20
69737;BME280;64476;55.004;73.342;2023-08-07T16:03:17;99743.19;;;20.24;38.35
69737;BME280;64476;55.004;73.342;2023-08-07T16:06:18;99731.88;;;20.17;38.43
69737;BME280;64476;55.004;73.342;2023-08-07T16:09:21;99732.03;;;20.10;38.71
69737;BME280;64476;55.004;73.342;2023-08-07T16:12:22;99723.31;;;19.98;38.87
69737;BME280;64476;55.004;73.342;2023-08-07T16:15:25;99735.44;;;20.05;39.25
69737;BME280;64476;55.004;73.342;2023-08-07T16:18:26;99730.50;;;19.97;39.18
69737;BME280;64476;55.004;73.342;2023-08-07T16:21:28;99738.72;;;19.96;39.25
69737;BME280;64476;55.004;73.342;2023-08-07T16:24:30;99736.22;;;19.89;39.27
69737;BME280;64476;55.004;73.342;2023-08-07T16:27:32;99725.63;;;19.77;39.96
69737;BME280;64476;55.004;73.342;2023-08-07T16:30:34;99709.81;;;19.59;40.12
69737;BME280;64476;55.004;73.342;2023-08-07T16:33:43;99736.22;;;19.72;40.24
69737;BME280;64476;55.004;73.342;2023-08-07T16:36:44;99725.00;;;19.58;40.75
69737;BME280;64476;55.004;73.342;2023-08-07T16:39:46;99717.16;;;19.52;40.79
69737;BME280;64476;55.004;73.342;2023-08-07T16:42:48;99738.59;;;19.57;41.39
69737;BME280;64476;55.004;73.342;2023-08-07T16:45:59;99712.28;;;19.32;41.47
69737;BME280;64476;55.004;73.342;2023-08-07T16:49:00;99726.47;;;19.37;41.74
69737;BME280;64476;55.004;73.342;2023-08-07T16:52:02;99742.72;;;19.36;42.21
69737;BME280;64476;55.004;73.342;2023-08-07T16:55:07;99736.47;;;19.30;42.47
69737;BME280;64476;55.004;73.342;2023-08-07T16:58:10;99744.63;;;19.24;42.57
69737;BME280;64476;55.004;73.342;2023-08-07T17:01:12;99685.44;;;18.81;42.82
69737;BME280;64476;55.004;73.342;2023-08-07T17:04:13;99715.84;;;18.97;43.18
69737;BME280;64476;55.004;73.342;2023-08-07T17:07:20;99707.88;;;18.85;43.11